Terminal Aerodrome Forecast
Issued by NWS

Home | Current Version | Previous Version | Text Only | Print | Product List | Glossary On
Versions: 1 2 3 4 5 6 7 8 9 10 11 12 13 14 15 16 17 18
885
FTUS41 KPBZ 072336
TAFFKL
TAF
KFKL 072336Z 0800/0824 19005KT P6SM BKN150
     FM081700 14005KT P6SM -RA OVC035
     FM082000 16005KT 3SM -RASN OVC025
     FM082200 20005KT 1 1/2SM -SN BR OVC015
      AMD LTD TO CLD VIS AND WIND=

USA.gov is the U.S. government's official web portal to all federal, state and local government web resources and services.